Attawapiskat Airport
CYAT : now visible

Airfield :











YOU CAN JOIN US ON...

 
LOGIN :

Register | Disclaimer

   EN    FR    IT 

 









Legend :    VFR   Marginal VFR   IFR   Intensive IFR   Very Intensive IFR
Visi :
Ceiling :
>= 8 km
>= 3000ft
5 to 8 km
1000 to 3000 ft
1500m to 5 km
500 to 1000 ft
800 to 1500m
200 to 500 ft
< 800m
< 200 ft
Symbols :   Thunderstorms  Fog  Heavy snow  Heavy precipitations  Wind > 20 kt






- Airport Elevation : 31 ft
- IATA code : YAT


CYAT - Attawapiskat

CURRENT METAR :
  • 081000Z AUTO 21004KT 9SM SCT170 BKN200 M29/M32 A3051 RMK SLP334

EXPIRED METARs :
  • 080900Z AUTO 19004KT 9SM FEW150 BKN170 BKN200 M28/M31 A3051 RMK SLP335
  • 080800Z AUTO 17004KT 9SM BKN160 OVC180 M28/M31 A3051 RMK SLP334

TAF TAF CYAT
Valid from the 08 at 10:00 until the 08 at 20:00 UTC


080940Z 0810/0820 19008KT P6SM BKN180
TEMPO 0810/0812 5SM IC BR
FM081200 19010KT P6SM BKN120
FM081700 22012KT P6SM BKN040 OVC080
TEMPO 0817/0820 5SM -SN OVC040 RMK FCST BASED ON AUTO OBS. NXT FCST BY 081400Z
CZWG FIR / North America



MET'MAP, your aeronautical weather chart ! - Copyright ORBIFLY December 2007 - Disclaimer

ORBIFLY MET'MAP TEAM :

Programming & Development : Alexandra Zaïnal
Original concept : Baudouin d'Aumeries
Technical & hardware support : Manuel Goepfert
Assistance : Marc-Olivier Méhu




SOURCES & CREDITS :

   NOAA       Earth
Advisory